sensor_id;sensor_type;location;lat;lon;timestamp;P1;durP1;ratioP1;P2;durP2;ratioP2
74626;SDS011;63132;52.268;5.192;2024-03-23T00:53:22;50.38;;;11.65;;
74626;SDS011;63132;52.268;5.192;2024-03-23T00:55:47;36.77;;;9.73;;
74626;SDS011;63132;52.268;5.192;2024-03-23T00:58:13;40.95;;;10.50;;
74626;SDS011;63132;52.268;5.192;2024-03-23T01:00:38;44.58;;;10.45;;
74626;SDS011;63132;52.268;5.192;2024-03-23T01:03:04;52.65;;;12.00;;
74626;SDS011;63132;52.268;5.192;2024-03-23T01:05:29;44.50;;;11.45;;
74626;SDS011;63132;52.268;5.192;2024-03-23T01:07:55;34.58;;;11.07;;
74626;SDS011;63132;52.268;5.192;2024-03-23T01:10:20;40.50;;;11.10;;
74626;SDS011;63132;52.268;5.192;2024-03-23T01:12:45;51.03;;;11.77;;
74626;SDS011;63132;52.268;5.192;2024-03-23T01:15:11;40.27;;;11.50;;
74626;SDS011;63132;52.268;5.192;2024-03-23T01:17:36;47.50;;;12.50;;
74626;SDS011;63132;52.268;5.192;2024-03-23T01:20:01;41.10;;;11.23;;
74626;SDS011;63132;52.268;5.192;2024-03-23T01:24:53;42.65;;;12.00;;
74626;SDS011;63132;52.268;5.192;2024-03-23T01:27:18;46.80;;;11.97;;
74626;SDS011;63132;52.268;5.192;2024-03-23T01:29:43;38.67;;;11.20;;
74626;SDS011;63132;52.268;5.192;2024-03-23T01:32:09;39.05;;;12.02;;
74626;SDS011;63132;52.268;5.192;2024-03-23T01:34:34;46.13;;;12.30;;
74626;SDS011;63132;52.268;5.192;2024-03-23T01:36:59;49.10;;;11.83;;
74626;SDS011;63132;52.268;5.192;2024-03-23T01:39:26;37.75;;;12.60;;
74626;SDS011;63132;52.268;5.192;2024-03-23T01:41:51;45.37;;;13.03;;
74626;SDS011;63132;52.268;5.192;2024-03-23T01:44:16;49.37;;;13.67;;
74626;SDS011;63132;52.268;5.192;2024-03-23T01:46:42;44.13;;;13.57;;
74626;SDS011;63132;52.268;5.192;2024-03-23T01:49:09;40.03;;;12.27;;
74626;SDS011;63132;52.268;5.192;2024-03-23T01:51:34;45.20;;;12.20;;
74626;SDS011;63132;52.268;5.192;2024-03-23T01:56:29;36.53;;;11.60;;
74626;SDS011;63132;52.268;5.192;2024-03-23T01:58:58;43.55;;;13.63;;
74626;SDS011;63132;52.268;5.192;2024-03-23T02:01:23;41.47;;;12.10;;
74626;SDS011;63132;52.268;5.192;2024-03-23T02:03:48;36.33;;;12.57;;
74626;SDS011;63132;52.268;5.192;2024-03-23T02:06:13;37.83;;;13.27;;
74626;SDS011;63132;52.268;5.192;2024-03-23T02:08:39;36.85;;;12.07;;
74626;SDS011;63132;52.268;5.192;2024-03-23T02:11:05;42.88;;;11.88;;
74626;SDS011;63132;52.268;5.192;2024-03-23T02:13:30;41.70;;;11.43;;
74626;SDS011;63132;52.268;5.192;2024-03-23T02:15:56;34.33;;;11.43;;
74626;SDS011;63132;52.268;5.192;2024-03-23T02:18:22;46.97;;;11.38;;
74626;SDS011;63132;52.268;5.192;2024-03-23T02:20:47;36.77;;;13.33;;
74626;SDS011;63132;52.268;5.192;2024-03-23T02:23:16;44.28;;;11.20;;
74626;SDS011;63132;52.268;5.192;2024-03-23T02:25:45;43.03;;;10.73;;
74626;SDS011;63132;52.268;5.192;2024-03-23T02:28:11;47.05;;;10.57;;
74626;SDS011;63132;52.268;5.192;2024-03-23T02:30:37;44.53;;;10.57;;
74626;SDS011;63132;52.268;5.192;2024-03-23T02:33:02;37.78;;;9.93;;
74626;SDS011;63132;52.268;5.192;2024-03-23T02:35:28;33.15;;;8.68;;
74626;SDS011;63132;52.268;5.192;2024-03-23T02:37:53;32.17;;;9.70;;
74626;SDS011;63132;52.268;5.192;2024-03-23T02:40:21;37.50;;;8.73;;
74626;SDS011;63132;52.268;5.192;2024-03-23T02:42:48;35.08;;;10.27;;
74626;SDS011;63132;52.268;5.192;2024-03-23T02:45:13;44.30;;;8.95;;
74626;SDS011;63132;52.268;5.192;2024-03-23T02:47:38;28.55;;;7.70;;
74626;SDS011;63132;52.268;5.192;2024-03-23T02:50:04;31.92;;;8.38;;
74626;SDS011;63132;52.268;5.192;2024-03-23T02:52:30;43.67;;;8.93;;
74626;SDS011;63132;52.268;5.192;2024-03-23T02:54:55;41.33;;;7.43;;
74626;SDS011;63132;52.268;5.192;2024-03-23T02:57:21;33.03;;;8.27;;
74626;SDS011;63132;52.268;5.192;2024-03-23T02:59:47;31.00;;;7.40;;
74626;SDS011;63132;52.268;5.192;2024-03-23T03:02:12;33.40;;;6.30;;
74626;SDS011;63132;52.268;5.192;2024-03-23T03:04:38;29.52;;;7.30;;
74626;SDS011;63132;52.268;5.192;2024-03-23T03:07:04;29.35;;;7.35;;
74626;SDS011;63132;52.268;5.192;2024-03-23T03:09:29;30.23;;;6.97;;
74626;SDS011;63132;52.268;5.192;2024-03-23T03:11:55;31.50;;;7.40;;
74626;SDS011;63132;52.268;5.192;2024-03-23T03:14:20;32.25;;;6.03;;
74626;SDS011;63132;52.268;5.192;2024-03-23T03:16:45;28.83;;;5.90;;
74626;SDS011;63132;52.268;5.192;2024-03-23T03:19:11;26.93;;;6.77;;
74626;SDS011;63132;52.268;5.192;2024-03-23T03:21:36;40.05;;;7.65;;
74626;SDS011;63132;52.268;5.192;2024-03-23T03:24:02;31.50;;;6.63;;
74626;SDS011;63132;52.268;5.192;2024-03-23T03:26:27;24.30;;;5.80;;
74626;SDS011;63132;52.268;5.192;2024-03-23T03:28:52;23.97;;;6.13;;
74626;SDS011;63132;52.268;5.192;2024-03-23T03:31:18;39.70;;;7.37;;
74626;SDS011;63132;52.268;5.192;2024-03-23T03:33:44;32.70;;;6.60;;
74626;SDS011;63132;52.268;5.192;2024-03-23T03:36:09;28.13;;;7.00;;
74626;SDS011;63132;52.268;5.192;2024-03-23T03:38:35;22.20;;;5.65;;
74626;SDS011;63132;52.268;5.192;2024-03-23T03:41:01;37.83;;;5.65;;
74626;SDS011;63132;52.268;5.192;2024-03-23T03:43:27;22.42;;;5.20;;
74626;SDS011;63132;52.268;5.192;2024-03-23T03:45:52;35.75;;;5.93;;
74626;SDS011;63132;52.268;5.192;2024-03-23T03:48:19;26.55;;;5.25;;
74626;SDS011;63132;52.268;5.192;2024-03-23T03:50:44;32.85;;;6.85;;
74626;SDS011;63132;52.268;5.192;2024-03-23T03:53:10;24.35;;;5.78;;
74626;SDS011;63132;52.268;5.192;2024-03-23T03:55:35;30.60;;;4.93;;
74626;SDS011;63132;52.268;5.192;2024-03-23T03:58:00;29.17;;;5.57;;
74626;SDS011;63132;52.268;5.192;2024-03-23T04:00:26;23.33;;;5.97;;
74626;SDS011;63132;52.268;5.192;2024-03-23T04:02:51;24.63;;;6.67;;
74626;SDS011;63132;52.268;5.192;2024-03-23T04:05:16;32.07;;;5.80;;
74626;SDS011;63132;52.268;5.192;2024-03-23T04:07:42;33.17;;;5.68;;
74626;SDS011;63132;52.268;5.192;2024-03-23T04:10:07;33.93;;;4.83;;
74626;SDS011;63132;52.268;5.192;2024-03-23T04:12:33;15.93;;;4.03;;
74626;SDS011;63132;52.268;5.192;2024-03-23T04:14:59;35.13;;;8.30;;
74626;SDS011;63132;52.268;5.192;2024-03-23T04:17:24;17.87;;;3.80;;
74626;SDS011;63132;52.268;5.192;2024-03-23T04:19:50;21.63;;;5.60;;
74626;SDS011;63132;52.268;5.192;2024-03-23T04:22:17;21.77;;;3.53;;
74626;SDS011;63132;52.268;5.192;2024-03-23T04:24:43;18.50;;;3.80;;
74626;SDS011;63132;52.268;5.192;2024-03-23T04:27:08;15.23;;;3.73;;
74626;SDS011;63132;52.268;5.192;2024-03-23T04:29:33;17.53;;;3.13;;
74626;SDS011;63132;52.268;5.192;2024-03-23T04:31:59;19.85;;;3.60;;
74626;SDS011;63132;52.268;5.192;2024-03-23T04:34:24;15.10;;;3.50;;
74626;SDS011;63132;52.268;5.192;2024-03-23T04:36:49;21.30;;;4.18;;
74626;SDS011;63132;52.268;5.192;2024-03-23T04:39:15;15.35;;;3.47;;
74626;SDS011;63132;52.268;5.192;2024-03-23T04:41:40;18.80;;;3.70;;
74626;SDS011;63132;52.268;5.192;2024-03-23T04:44:06;16.80;;;3.20;;
74626;SDS011;63132;52.268;5.192;2024-03-23T04:46:31;25.35;;;4.10;;
74626;SDS011;63132;52.268;5.192;2024-03-23T04:48:57;14.93;;;3.63;;
74626;SDS011;63132;52.268;5.192;2024-03-23T04:51:25;24.50;;;4.03;;
74626;SDS011;63132;52.268;5.192;2024-03-23T04:53:51;24.80;;;3.70;;
74626;SDS011;63132;52.268;5.192;2024-03-23T04:56:16;25.52;;;3.65;;
74626;SDS011;63132;52.268;5.192;2024-03-23T04:58:42;20.85;;;3.67;;
74626;SDS011;63132;52.268;5.192;2024-03-23T05:01:08;22.77;;;4.00;;
74626;SDS011;63132;52.268;5.192;2024-03-23T05:03:34;13.65;;;4.50;;
74626;SDS011;63132;52.268;5.192;2024-03-23T05:05:59;19.93;;;3.80;;
74626;SDS011;63132;52.268;5.192;2024-03-23T05:08:25;19.85;;;3.80;;
74626;SDS011;63132;52.268;5.192;2024-03-23T05:10:50;19.37;;;3.33;;
74626;SDS011;63132;52.268;5.192;2024-03-23T05:13:16;9.73;;;3.37;;
74626;SDS011;63132;52.268;5.192;2024-03-23T05:15:41;22.27;;;5.07;;
74626;SDS011;63132;52.268;5.192;2024-03-23T05:18:06;22.70;;;3.73;;
74626;SDS011;63132;52.268;5.192;2024-03-23T05:20:32;13.85;;;3.50;;
74626;SDS011;63132;52.268;5.192;2024-03-23T05:22:57;18.92;;;3.63;;
74626;SDS011;63132;52.268;5.192;2024-03-23T05:25:23;16.35;;;4.10;;
74626;SDS011;63132;52.268;5.192;2024-03-23T05:27:48;20.10;;;3.83;;
74626;SDS011;63132;52.268;5.192;2024-03-23T05:32:39;17.92;;;3.80;;
74626;SDS011;63132;52.268;5.192;2024-03-23T05:35:07;20.75;;;3.53;;
74626;SDS011;63132;52.268;5.192;2024-03-23T05:39:59;19.17;;;5.13;;
74626;SDS011;63132;52.268;5.192;2024-03-23T05:42:24;19.20;;;3.90;;
74626;SDS011;63132;52.268;5.192;2024-03-23T05:44:50;23.43;;;4.20;;
74626;SDS011;63132;52.268;5.192;2024-03-23T05:47:15;20.53;;;3.70;;
74626;SDS011;63132;52.268;5.192;2024-03-23T05:49:41;18.55;;;4.45;;
74626;SDS011;63132;52.268;5.192;2024-03-23T05:52:08;15.88;;;3.33;;
74626;SDS011;63132;52.268;5.192;2024-03-23T05:54:34;23.00;;;3.47;;
74626;SDS011;63132;52.268;5.192;2024-03-23T05:57:00;23.15;;;4.03;;
74626;SDS011;63132;52.268;5.192;2024-03-23T05:59:25;19.60;;;4.10;;
74626;SDS011;63132;52.268;5.192;2024-03-23T06:01:52;23.35;;;5.07;;
74626;SDS011;63132;52.268;5.192;2024-03-23T06:04:17;18.05;;;3.47;;
74626;SDS011;63132;52.268;5.192;2024-03-23T06:06:42;26.60;;;4.03;;
74626;SDS011;63132;52.268;5.192;2024-03-23T06:09:08;13.73;;;3.67;;
74626;SDS011;63132;52.268;5.192;2024-03-23T06:11:33;18.83;;;4.20;;
74626;SDS011;63132;52.268;5.192;2024-03-23T06:13:58;23.83;;;3.90;;
74626;SDS011;63132;52.268;5.192;2024-03-23T06:16:23;18.50;;;3.53;;
74626;SDS011;63132;52.268;5.192;2024-03-23T06:18:49;28.58;;;5.15;;
74626;SDS011;63132;52.268;5.192;2024-03-23T06:21:15;11.65;;;3.67;;
74626;SDS011;63132;52.268;5.192;2024-03-23T06:23:41;20.00;;;3.93;;
74626;SDS011;63132;52.268;5.192;2024-03-23T06:26:07;21.02;;;5.15;;
74626;SDS011;63132;52.268;5.192;2024-03-23T06:28:32;28.93;;;4.67;;
74626;SDS011;63132;52.268;5.192;2024-03-23T06:30:57;23.10;;;4.03;;
74626;SDS011;63132;52.268;5.192;2024-03-23T06:33:22;19.90;;;4.83;;
74626;SDS011;63132;52.268;5.192;2024-03-23T06:35:51;21.08;;;4.05;;
74626;SDS011;63132;52.268;5.192;2024-03-23T06:38:17;20.65;;;4.28;;
74626;SDS011;63132;52.268;5.192;2024-03-23T06:40:43;25.17;;;4.47;;
74626;SDS011;63132;52.268;5.192;2024-03-23T06:43:12;22.55;;;4.82;;
74626;SDS011;63132;52.268;5.192;2024-03-23T06:45:38;22.45;;;6.32;;
74626;SDS011;63132;52.268;5.192;2024-03-23T06:48:04;16.77;;;5.13;;
74626;SDS011;63132;52.268;5.192;2024-03-23T06:50:32;20.92;;;5.80;;
74626;SDS011;63132;52.268;5.192;2024-03-23T06:52:57;28.87;;;4.57;;
74626;SDS011;63132;52.268;5.192;2024-03-23T06:55:22;17.87;;;5.57;;
74626;SDS011;63132;52.268;5.192;2024-03-23T06:57:49;19.13;;;5.50;;
74626;SDS011;63132;52.268;5.192;2024-03-23T07:00:15;22.27;;;5.37;;
74626;SDS011;63132;52.268;5.192;2024-03-23T07:02:41;19.35;;;5.78;;
74626;SDS011;63132;52.268;5.192;2024-03-23T07:05:06;13.60;;;5.27;;
74626;SDS011;63132;52.268;5.192;2024-03-23T07:07:32;25.20;;;7.22;;
74626;SDS011;63132;52.268;5.192;2024-03-23T07:09:57;18.90;;;5.97;;
74626;SDS011;63132;52.268;5.192;2024-03-23T07:12:23;18.88;;;5.95;;
74626;SDS011;63132;52.268;5.192;2024-03-23T07:14:48;22.30;;;5.10;;
74626;SDS011;63132;52.268;5.192;2024-03-23T07:17:13;19.07;;;5.47;;
74626;SDS011;63132;52.268;5.192;2024-03-23T07:19:38;20.13;;;5.00;;
74626;SDS011;63132;52.268;5.192;2024-03-23T07:22:04;21.85;;;5.10;;
74626;SDS011;63132;52.268;5.192;2024-03-23T07:24:29;23.27;;;4.47;;
74626;SDS011;63132;52.268;5.192;2024-03-23T07:26:55;17.85;;;4.55;;
74626;SDS011;63132;52.268;5.192;2024-03-23T07:29:22;24.80;;;4.50;;
74626;SDS011;63132;52.268;5.192;2024-03-23T07:31:48;19.25;;;4.25;;
74626;SDS011;63132;52.268;5.192;2024-03-23T07:34:13;17.98;;;3.75;;
74626;SDS011;63132;52.268;5.192;2024-03-23T07:36:39;19.60;;;3.77;;
74626;SDS011;63132;52.268;5.192;2024-03-23T07:39:04;16.65;;;3.42;;
74626;SDS011;63132;52.268;5.192;2024-03-23T07:41:29;9.87;;;2.93;;
74626;SDS011;63132;52.268;5.192;2024-03-23T07:43:55;15.23;;;3.15;;
74626;SDS011;63132;52.268;5.192;2024-03-23T07:46:21;21.00;;;3.22;;
74626;SDS011;63132;52.268;5.192;2024-03-23T07:48:46;10.68;;;3.40;;
74626;SDS011;63132;52.268;5.192;2024-03-23T07:51:19;14.85;;;3.15;;
74626;SDS011;63132;52.268;5.192;2024-03-23T07:53:46;16.38;;;3.05;;
74626;SDS011;63132;52.268;5.192;2024-03-23T07:56:13;17.95;;;3.03;;
74626;SDS011;63132;52.268;5.192;2024-03-23T07:58:40;18.42;;;3.10;;
74626;SDS011;63132;52.268;5.192;2024-03-23T08:01:09;17.35;;;2.65;;
74626;SDS011;63132;52.268;5.192;2024-03-23T08:03:39;15.02;;;4.03;;
74626;SDS011;63132;52.268;5.192;2024-03-23T08:06:15;14.45;;;2.60;;
74626;SDS011;63132;52.268;5.192;2024-03-23T08:08:43;18.85;;;3.22;;
74626;SDS011;63132;52.268;5.192;2024-03-23T08:11:10;10.98;;;2.33;;
74626;SDS011;63132;52.268;5.192;2024-03-23T08:13:35;12.15;;;2.55;;
74626;SDS011;63132;52.268;5.192;2024-03-23T08:16:03;11.35;;;2.63;;
74626;SDS011;63132;52.268;5.192;2024-03-23T08:18:29;18.42;;;2.10;;
74626;SDS011;63132;52.268;5.192;2024-03-23T08:20:59;11.93;;;2.17;;
74626;SDS011;63132;52.268;5.192;2024-03-23T08:23:29;18.52;;;2.85;;
74626;SDS011;63132;52.268;5.192;2024-03-23T08:25:58;19.63;;;2.63;;
74626;SDS011;63132;52.268;5.192;2024-03-23T08:28:25;12.55;;;2.30;;
74626;SDS011;63132;52.268;5.192;2024-03-23T08:30:51;9.27;;;2.20;;
74626;SDS011;63132;52.268;5.192;2024-03-23T08:33:18;13.77;;;3.33;;
74626;SDS011;63132;52.268;5.192;2024-03-23T08:35:52;14.82;;;2.55;;
74626;SDS011;63132;52.268;5.192;2024-03-23T08:38:22;12.57;;;3.17;;
74626;SDS011;63132;52.268;5.192;2024-03-23T08:40:48;13.05;;;2.30;;
74626;SDS011;63132;52.268;5.192;2024-03-23T08:43:21;16.27;;;2.65;;
74626;SDS011;63132;52.268;5.192;2024-03-23T08:45:46;12.80;;;2.77;;
74626;SDS011;63132;52.268;5.192;2024-03-23T08:48:11;16.50;;;2.10;;
74626;SDS011;63132;52.268;5.192;2024-03-23T08:50:36;14.77;;;1.87;;
74626;SDS011;63132;52.268;5.192;2024-03-23T08:53:02;11.10;;;2.53;;
74626;SDS011;63132;52.268;5.192;2024-03-23T08:55:28;11.82;;;2.38;;
74626;SDS011;63132;52.268;5.192;2024-03-23T08:57:53;11.00;;;2.27;;
74626;SDS011;63132;52.268;5.192;2024-03-23T09:00:18;15.13;;;2.00;;
74626;SDS011;63132;52.268;5.192;2024-03-23T09:02:47;11.35;;;2.28;;
74626;SDS011;63132;52.268;5.192;2024-03-23T09:05:12;12.90;;;2.10;;
74626;SDS011;63132;52.268;5.192;2024-03-23T09:07:38;8.77;;;2.55;;
74626;SDS011;63132;52.268;5.192;2024-03-23T09:10:03;8.93;;;2.60;;
74626;SDS011;63132;52.268;5.192;2024-03-23T09:12:28;13.90;;;2.22;;
74626;SDS011;63132;52.268;5.192;2024-03-23T09:14:54;17.27;;;2.47;;
74626;SDS011;63132;52.268;5.192;2024-03-23T09:17:19;16.02;;;2.20;;
74626;SDS011;63132;52.268;5.192;2024-03-23T09:19:44;9.50;;;1.70;;
74626;SDS011;63132;52.268;5.192;2024-03-23T09:22:10;13.20;;;2.45;;
74626;SDS011;63132;52.268;5.192;2024-03-23T09:24:35;15.00;;;1.90;;
74626;SDS011;63132;52.268;5.192;2024-03-23T09:27:01;7.05;;;2.45;;
74626;SDS011;63132;52.268;5.192;2024-03-23T09:29:28;13.70;;;2.80;;
74626;SDS011;63132;52.268;5.192;2024-03-23T09:31:53;10.32;;;2.20;;
74626;SDS011;63132;52.268;5.192;2024-03-23T09:34:19;13.87;;;2.80;;
74626;SDS011;63132;52.268;5.192;2024-03-23T09:36:44;13.05;;;2.45;;
74626;SDS011;63132;52.268;5.192;2024-03-23T09:41:35;13.27;;;2.33;;
74626;SDS011;63132;52.268;5.192;2024-03-23T09:44:01;13.77;;;2.63;;
74626;SDS011;63132;52.268;5.192;2024-03-23T09:48:53;12.48;;;2.83;;
74626;SDS011;63132;52.268;5.192;2024-03-23T09:51:21;15.63;;;2.60;;
74626;SDS011;63132;52.268;5.192;2024-03-23T09:53:46;17.23;;;2.33;;
74626;SDS011;63132;52.268;5.192;2024-03-23T09:56:11;14.73;;;3.00;;
74626;SDS011;63132;52.268;5.192;2024-03-23T09:58:37;15.67;;;2.60;;
74626;SDS011;63132;52.268;5.192;2024-03-23T10:01:02;12.05;;;2.85;;
74626;SDS011;63132;52.268;5.192;2024-03-23T10:03:28;8.93;;;2.25;;
74626;SDS011;63132;52.268;5.192;2024-03-23T10:06:00;19.67;;;2.50;;
74626;SDS011;63132;52.268;5.192;2024-03-23T10:08:27;13.13;;;2.53;;
74626;SDS011;63132;52.268;5.192;2024-03-23T10:10:54;13.15;;;1.95;;
74626;SDS011;63132;52.268;5.192;2024-03-23T10:13:25;9.97;;;2.30;;
74626;SDS011;63132;52.268;5.192;2024-03-23T10:15:57;13.40;;;2.35;;
74626;SDS011;63132;52.268;5.192;2024-03-23T10:18:23;13.20;;;2.95;;
74626;SDS011;63132;52.268;5.192;2024-03-23T10:23:34;9.68;;;2.22;;
74626;SDS011;63132;52.268;5.192;2024-03-23T10:26:19;11.80;;;2.25;;
74626;SDS011;63132;52.268;5.192;2024-03-23T10:31:21;15.00;;;2.28;;
74626;SDS011;63132;52.268;5.192;2024-03-23T10:33:47;10.75;;;2.22;;
74626;SDS011;63132;52.268;5.192;2024-03-23T10:36:14;16.63;;;2.67;;
74626;SDS011;63132;52.268;5.192;2024-03-23T10:38:40;12.15;;;2.10;;
74626;SDS011;63132;52.268;5.192;2024-03-23T10:41:07;10.88;;;2.75;;
74626;SDS011;63132;52.268;5.192;2024-03-23T10:43:35;19.98;;;2.28;;
74626;SDS011;63132;52.268;5.192;2024-03-23T10:46:01;14.18;;;2.42;;
74626;SDS011;63132;52.268;5.192;2024-03-23T10:48:26;14.10;;;2.20;;
74626;SDS011;63132;52.268;5.192;2024-03-23T10:50:52;8.65;;;1.95;;
74626;SDS011;63132;52.268;5.192;2024-03-23T10:53:19;14.02;;;2.13;;
74626;SDS011;63132;52.268;5.192;2024-03-23T10:55:50;8.52;;;2.05;;
74626;SDS011;63132;52.268;5.192;2024-03-23T10:58:17;11.75;;;1.95;;
74626;SDS011;63132;52.268;5.192;2024-03-23T11:00:48;20.25;;;2.63;;
74626;SDS011;63132;52.268;5.192;2024-03-23T11:03:36;12.35;;;2.20;;
74626;SDS011;63132;52.268;5.192;2024-03-23T11:06:03;11.32;;;2.10;;
74626;SDS011;63132;52.268;5.192;2024-03-23T11:08:36;15.88;;;2.83;;
74626;SDS011;63132;52.268;5.192;2024-03-23T11:11:18;16.27;;;2.53;;
74626;SDS011;63132;52.268;5.192;2024-03-23T11:13:45;9.13;;;2.03;;
74626;SDS011;63132;52.268;5.192;2024-03-23T11:16:21;12.75;;;2.92;;
74626;SDS011;63132;52.268;5.192;2024-03-23T11:22:04;12.90;;;2.90;;
74626;SDS011;63132;52.268;5.192;2024-03-23T11:24:30;11.80;;;2.10;;
74626;SDS011;63132;52.268;5.192;2024-03-23T11:29:25;10.27;;;2.08;;
74626;SDS011;63132;52.268;5.192;2024-03-23T11:31:51;21.45;;;2.80;;
74626;SDS011;63132;52.268;5.192;2024-03-23T11:34:17;16.13;;;2.78;;
74626;SDS011;63132;52.268;5.192;2024-03-23T11:36:44;15.82;;;3.60;;
74626;SDS011;63132;52.268;5.192;2024-03-23T11:41:55;13.00;;;2.70;;
74626;SDS011;63132;52.268;5.192;2024-03-23T11:44:22;13.00;;;2.90;;
74626;SDS011;63132;52.268;5.192;2024-03-23T11:46:49;15.68;;;4.05;;
74626;SDS011;63132;52.268;5.192;2024-03-23T11:49:24;13.77;;;1.97;;
74626;SDS011;63132;52.268;5.192;2024-03-23T11:51:54;10.30;;;2.15;;
74626;SDS011;63132;52.268;5.192;2024-03-23T11:54:24;12.73;;;2.05;;
74626;SDS011;63132;52.268;5.192;2024-03-23T12:02:08;13.25;;;3.33;;
74626;SDS011;63132;52.268;5.192;2024-03-23T12:04:36;15.07;;;2.47;;
74626;SDS011;63132;52.268;5.192;2024-03-23T12:07:15;5.82;;;1.77;;
74626;SDS011;63132;52.268;5.192;2024-03-23T12:09:44;15.20;;;1.90;;
74626;SDS011;63132;52.268;5.192;2024-03-23T12:12:14;11.45;;;2.03;;
74626;SDS011;63132;52.268;5.192;2024-03-23T12:14:41;13.43;;;1.90;;
74626;SDS011;63132;52.268;5.192;2024-03-23T12:17:08;14.13;;;2.40;;
74626;SDS011;63132;52.268;5.192;2024-03-23T12:19:34;14.57;;;1.77;;
74626;SDS011;63132;52.268;5.192;2024-03-23T12:22:00;11.13;;;1.77;;
74626;SDS011;63132;52.268;5.192;2024-03-23T12:24:26;11.13;;;2.08;;
74626;SDS011;63132;52.268;5.192;2024-03-23T12:26:51;11.77;;;2.15;;
74626;SDS011;63132;52.268;5.192;2024-03-23T12:29:16;13.60;;;2.50;;
74626;SDS011;63132;52.268;5.192;2024-03-23T12:34:08;8.25;;;1.80;;
74626;SDS011;63132;52.268;5.192;2024-03-23T12:36:33;16.98;;;2.92;;
74626;SDS011;63132;52.268;5.192;2024-03-23T12:38:58;8.90;;;2.28;;
74626;SDS011;63132;52.268;5.192;2024-03-23T12:41:24;14.45;;;2.33;;
74626;SDS011;63132;52.268;5.192;2024-03-23T12:43:49;6.93;;;1.15;;
74626;SDS011;63132;52.268;5.192;2024-03-23T12:46:14;10.33;;;1.40;;
74626;SDS011;63132;52.268;5.192;2024-03-23T12:48:40;11.77;;;1.75;;
74626;SDS011;63132;52.268;5.192;2024-03-23T12:51:07;9.25;;;1.90;;
74626;SDS011;63132;52.268;5.192;2024-03-23T12:53:32;9.17;;;1.87;;
74626;SDS011;63132;52.268;5.192;2024-03-23T12:55:57;7.70;;;1.83;;
74626;SDS011;63132;52.268;5.192;2024-03-23T12:58:23;12.75;;;2.38;;
74626;SDS011;63132;52.268;5.192;2024-03-23T13:00:48;10.27;;;1.80;;
74626;SDS011;63132;52.268;5.192;2024-03-23T13:03:14;9.13;;;1.83;;
74626;SDS011;63132;52.268;5.192;2024-03-23T13:05:40;8.20;;;2.30;;
74626;SDS011;63132;52.268;5.192;2024-03-23T13:08:06;10.52;;;1.90;;
74626;SDS011;63132;52.268;5.192;2024-03-23T13:10:32;12.00;;;1.80;;
74626;SDS011;63132;52.268;5.192;2024-03-23T13:12:57;13.88;;;2.28;;
74626;SDS011;63132;52.268;5.192;2024-03-23T13:15:23;11.60;;;1.97;;
74626;SDS011;63132;52.268;5.192;2024-03-23T13:17:48;12.30;;;2.43;;
74626;SDS011;63132;52.268;5.192;2024-03-23T13:20:13;10.73;;;2.30;;
74626;SDS011;63132;52.268;5.192;2024-03-23T13:22:39;10.18;;;1.73;;
74626;SDS011;63132;52.268;5.192;2024-03-23T13:25:05;16.52;;;3.58;;
74626;SDS011;63132;52.268;5.192;2024-03-23T13:27:31;16.10;;;2.03;;
74626;SDS011;63132;52.268;5.192;2024-03-23T13:29:56;5.87;;;1.57;;
74626;SDS011;63132;52.268;5.192;2024-03-23T13:32:22;10.77;;;1.95;;
74626;SDS011;63132;52.268;5.192;2024-03-23T13:34:48;12.53;;;1.67;;
74626;SDS011;63132;52.268;5.192;2024-03-23T13:37:15;15.55;;;2.25;;
74626;SDS011;63132;52.268;5.192;2024-03-23T13:39:40;7.43;;;1.50;;
74626;SDS011;63132;52.268;5.192;2024-03-23T13:44:34;8.73;;;1.85;;
74626;SDS011;63132;52.268;5.192;2024-03-23T13:46:59;7.65;;;1.63;;
74626;SDS011;63132;52.268;5.192;2024-03-23T13:49:28;14.40;;;1.67;;
74626;SDS011;63132;52.268;5.192;2024-03-23T13:51:55;9.95;;;1.90;;
74626;SDS011;63132;52.268;5.192;2024-03-23T13:54:22;11.57;;;1.70;;
74626;SDS011;63132;52.268;5.192;2024-03-23T13:56:49;12.57;;;1.95;;
74626;SDS011;63132;52.268;5.192;2024-03-23T13:59:17;12.55;;;2.65;;
74626;SDS011;63132;52.268;5.192;2024-03-23T14:01:43;9.80;;;2.15;;
74626;SDS011;63132;52.268;5.192;2024-03-23T14:04:10;13.57;;;2.20;;
74626;SDS011;63132;52.268;5.192;2024-03-23T14:06:36;9.43;;;2.15;;
74626;SDS011;63132;52.268;5.192;2024-03-23T14:09:01;10.27;;;1.90;;
74626;SDS011;63132;52.268;5.192;2024-03-23T14:11:28;10.07;;;2.30;;
74626;SDS011;63132;52.268;5.192;2024-03-23T14:13:54;9.15;;;1.80;;
74626;SDS011;63132;52.268;5.192;2024-03-23T14:16:19;7.32;;;1.88;;
74626;SDS011;63132;52.268;5.192;2024-03-23T14:18:48;7.22;;;1.77;;
74626;SDS011;63132;52.268;5.192;2024-03-23T14:21:13;9.20;;;1.75;;
74626;SDS011;63132;52.268;5.192;2024-03-23T14:23:38;10.27;;;2.20;;
74626;SDS011;63132;52.268;5.192;2024-03-23T14:26:05;11.05;;;1.88;;
74626;SDS011;63132;52.268;5.192;2024-03-23T14:28:31;6.95;;;1.65;;
74626;SDS011;63132;52.268;5.192;2024-03-23T14:30:57;8.13;;;1.60;;
74626;SDS011;63132;52.268;5.192;2024-03-23T14:33:22;7.75;;;1.73;;
74626;SDS011;63132;52.268;5.192;2024-03-23T14:35:52;10.27;;;1.90;;
74626;SDS011;63132;52.268;5.192;2024-03-23T14:38:24;10.20;;;1.80;;
74626;SDS011;63132;52.268;5.192;2024-03-23T14:40:50;10.88;;;1.75;;
74626;SDS011;63132;52.268;5.192;2024-03-23T14:43:17;10.88;;;1.88;;
74626;SDS011;63132;52.268;5.192;2024-03-23T14:48:30;6.97;;;1.90;;
74626;SDS011;63132;52.268;5.192;2024-03-23T14:50:58;12.75;;;2.53;;
74626;SDS011;63132;52.268;5.192;2024-03-23T14:53:24;7.78;;;1.50;;
74626;SDS011;63132;52.268;5.192;2024-03-23T14:55:50;11.15;;;1.75;;
74626;SDS011;63132;52.268;5.192;2024-03-23T14:58:15;10.57;;;2.75;;
74626;SDS011;63132;52.268;5.192;2024-03-23T15:00:40;7.68;;;1.92;;
74626;SDS011;63132;52.268;5.192;2024-03-23T15:03:06;19.25;;;2.38;;
74626;SDS011;63132;52.268;5.192;2024-03-23T15:05:31;5.30;;;1.57;;
74626;SDS011;63132;52.268;5.192;2024-03-23T15:07:56;11.57;;;1.70;;
74626;SDS011;63132;52.268;5.192;2024-03-23T15:10:23;6.45;;;1.58;;
74626;SDS011;63132;52.268;5.192;2024-03-23T15:12:48;21.15;;;2.60;;
74626;SDS011;63132;52.268;5.192;2024-03-23T15:15:14;10.02;;;2.33;;
74626;SDS011;63132;52.268;5.192;2024-03-23T15:17:40;9.00;;;1.98;;
74626;SDS011;63132;52.268;5.192;2024-03-23T15:20:09;13.95;;;1.85;;
74626;SDS011;63132;52.268;5.192;2024-03-23T15:22:36;14.80;;;1.92;;
74626;SDS011;63132;52.268;5.192;2024-03-23T15:25:02;9.50;;;2.08;;
74626;SDS011;63132;52.268;5.192;2024-03-23T15:27:27;11.98;;;2.58;;
74626;SDS011;63132;52.268;5.192;2024-03-23T15:29:52;10.53;;;1.70;;
74626;SDS011;63132;52.268;5.192;2024-03-23T15:32:18;7.93;;;1.70;;
74626;SDS011;63132;52.268;5.192;2024-03-23T15:34:43;13.20;;;2.63;;
74626;SDS011;63132;52.268;5.192;2024-03-23T15:37:08;8.88;;;1.67;;
74626;SDS011;63132;52.268;5.192;2024-03-23T15:39:33;7.50;;;1.70;;
74626;SDS011;63132;52.268;5.192;2024-03-23T15:41:59;13.30;;;1.60;;
74626;SDS011;63132;52.268;5.192;2024-03-23T15:44:24;10.55;;;2.00;;
74626;SDS011;63132;52.268;5.192;2024-03-23T15:46:50;7.80;;;1.80;;
74626;SDS011;63132;52.268;5.192;2024-03-23T15:49:15;6.25;;;1.55;;
74626;SDS011;63132;52.268;5.192;2024-03-23T15:51:40;11.50;;;2.00;;
74626;SDS011;63132;52.268;5.192;2024-03-23T15:54:09;12.13;;;2.30;;
74626;SDS011;63132;52.268;5.192;2024-03-23T15:56:34;14.63;;;2.10;;
74626;SDS011;63132;52.268;5.192;2024-03-23T15:59:00;10.27;;;2.15;;
74626;SDS011;63132;52.268;5.192;2024-03-23T16:01:30;8.88;;;2.35;;
74626;SDS011;63132;52.268;5.192;2024-03-23T16:03:58;14.80;;;2.45;;